Time;durP1;ratioP1;P1;durP2;ratioP2;P2;SDS_P1;SDS_P2;PMS_P1;PMS_P2;Temp;Humidity;BMP_temperature;BMP_pressure;BME280_temperature;BME280_humidity;BME280_pressure;Samples;Min_cycle;Max_cycle;Signal;HPM_P1;HPM_P2
2021/09/01 00:01:06;;;;;;;10.23;5.93;;;15.80;99.90;;;;;;5016951;28;20233;-87
2021/09/01 00:03:33;;;;;;;12.30;5.97;;;15.80;99.90;;;;;;5027458;28;20288;-87
2021/09/01 00:06:00;;;;;;;10.00;5.63;;;15.70;99.90;;;;;;5023654;28;20674;-86
2021/09/01 00:08:27;;;;;;;10.63;4.87;;;15.70;99.90;;;;;;5013701;28;20237;-86
2021/09/01 00:10:55;;;;;;;12.63;5.60;;;15.70;99.90;;;;;;5028376;28;20194;-84
2021/09/01 00:13:22;;;;;;;12.77;4.70;;;15.70;99.90;;;;;;5020844;28;20198;-85
2021/09/01 00:15:49;;;;;;;11.40;5.40;;;15.70;99.90;;;;;;5021011;28;20277;-86
2021/09/01 00:18:16;;;;;;;11.47;4.87;;;15.70;99.90;;;;;;5025083;28;20321;-86
2021/09/01 00:20:43;;;;;;;15.98;4.57;;;15.60;99.90;;;;;;5014521;28;20725;-85
2021/09/01 00:23:14;;;;;;;9.20;4.40;;;15.70;99.90;;;;;;5023052;28;20193;-86
2021/09/01 00:25:41;;;;;;;11.47;4.57;;;15.70;99.90;;;;;;5022987;28;20228;-85
2021/09/01 00:28:10;;;;;;;10.47;4.70;;;15.60;99.90;;;;;;5028892;28;20345;-86
2021/09/01 00:30:37;;;;;;;12.10;5.43;;;15.60;99.90;;;;;;5026774;28;20197;-85
2021/09/01 00:33:04;;;;;;;10.40;4.30;;;15.70;99.90;;;;;;5034058;28;20801;-86
2021/09/01 00:35:31;;;;;;;11.67;4.00;;;15.70;99.90;;;;;;5027744;28;20194;-86
2021/09/01 00:37:58;;;;;;;9.50;3.88;;;15.60;99.90;;;;;;5027045;28;20630;-85
2021/09/01 00:40:28;;;;;;;13.80;4.27;;;15.60;99.90;;;;;;5024824;28;20289;-85
2021/09/01 00:42:55;;;;;;;11.37;4.40;;;15.60;99.90;;;;;;5026063;28;20193;-84
2021/09/01 00:45:23;;;;;;;9.55;3.70;;;15.60;99.90;;;;;;5021943;28;20213;-86
2021/09/01 00:47:50;;;;;;;8.88;3.63;;;15.50;99.90;;;;;;5025759;28;20201;-84
2021/09/01 00:50:17;;;;;;;10.80;4.50;;;15.50;99.90;;;;;;5024964;28;20289;-84
2021/09/01 00:52:45;;;;;;;12.45;3.85;;;15.50;99.90;;;;;;5022302;28;20284;-85
2021/09/01 00:55:13;;;;;;;12.90;4.65;;;15.50;99.90;;;;;;5025569;28;20596;-85
2021/09/01 00:57:43;;;;;;;13.27;4.03;;;15.50;99.90;;;;;;5026246;28;20186;-84
2021/09/01 01:00:20;;;;;;;11.67;3.67;;;15.50;99.90;;;;;;5033125;28;20229;-87
2021/09/01 01:02:48;;;;;;;12.47;3.80;;;15.50;99.90;;;;;;5016198;28;20537;-87
2021/09/01 01:05:15;;;;;;;11.40;4.27;;;15.50;99.90;;;;;;5026924;28;20257;-87
2021/09/01 01:07:42;;;;;;;13.50;4.43;;;15.50;99.90;;;;;;5031595;28;20245;-86
2021/09/01 01:10:10;;;;;;;12.40;3.80;;;15.50;99.90;;;;;;5025016;28;20285;-87
2021/09/01 01:12:37;;;;;;;9.10;3.70;;;15.50;99.90;;;;;;5018791;28;20281;-86
2021/09/01 01:15:04;;;;;;;13.40;4.20;;;15.50;99.90;;;;;;5024030;28;20194;-87
2021/09/01 01:17:31;;;;;;;11.87;4.13;;;15.50;99.90;;;;;;5025513;28;20571;-88
2021/09/01 01:19:59;;;;;;;9.83;3.70;;;15.50;99.90;;;;;;5024678;28;20328;-87
2021/09/01 01:22:27;;;;;;;14.00;3.80;;;15.50;99.90;;;;;;5020169;28;20245;-88
2021/09/01 01:24:56;;;;;;;11.20;3.78;;;15.50;99.90;;;;;;5023554;28;20688;-87
2021/09/01 01:27:29;;;;;;;7.83;3.40;;;15.40;99.90;;;;;;5023435;28;20296;-86
2021/09/01 01:29:57;;;;;;;11.47;3.23;;;15.40;99.90;;;;;;5023995;28;20205;-87
2021/09/01 01:32:24;;;;;;;10.48;3.58;;;15.40;99.90;;;;;;5021029;28;20201;-86
2021/09/01 01:34:50;;;;;;;10.27;3.50;;;15.40;99.90;;;;;;5022718;28;20190;-86
2021/09/01 01:37:17;;;;;;;14.27;3.67;;;15.40;99.90;;;;;;5023425;28;20212;-84
2021/09/01 01:39:44;;;;;;;9.23;3.57;;;15.40;99.90;;;;;;5031301;28;20277;-85
2021/09/01 01:42:11;;;;;;;7.97;3.70;;;15.40;99.90;;;;;;5024480;28;20186;-84
2021/09/01 01:44:40;;;;;;;13.05;3.85;;;15.40;99.90;;;;;;5018773;28;20221;-86
2021/09/01 01:47:06;;;;;;;12.57;3.20;;;15.50;99.90;;;;;;5024721;28;20257;-85
2021/09/01 01:49:34;;;;;;;11.73;3.57;;;15.50;99.90;;;;;;5021707;28;20292;-85
2021/09/01 01:52:00;;;;;;;8.63;3.60;;;15.40;99.90;;;;;;5023394;28;20205;-85
2021/09/01 01:54:27;;;;;;;10.30;3.38;;;15.40;99.90;;;;;;5033340;28;20284;-87
2021/09/01 01:56:54;;;;;;;16.08;3.50;;;15.40;99.90;;;;;;5028215;28;20286;-85
2021/09/01 01:59:21;;;;;;;15.90;3.43;;;15.40;99.90;;;;;;5031291;28;20267;-82
2021/09/01 02:01:49;;;;;;;12.60;3.73;;;15.40;99.90;;;;;;5024309;28;20310;-82
2021/09/01 02:04:16;;;;;;;9.53;3.37;;;15.40;99.90;;;;;;5017064;28;20202;-82
2021/09/01 02:06:43;;;;;;;10.27;3.80;;;15.40;99.90;;;;;;5021489;28;20224;-82
2021/09/01 02:09:10;;;;;;;11.53;3.80;;;15.40;99.90;;;;;;5032056;28;20194;-83
2021/09/01 02:11:38;;;;;;;11.10;3.77;;;15.40;99.90;;;;;;5023123;28;20233;-83
2021/09/01 02:14:05;;;;;;;11.00;3.53;;;15.40;99.90;;;;;;5020650;28;20218;-83
2021/09/01 02:16:32;;;;;;;7.33;3.50;;;15.40;99.90;;;;;;5015601;28;20202;-84
2021/09/01 02:19:00;;;;;;;8.80;2.87;;;15.40;99.90;;;;;;5020094;28;20204;-83
2021/09/01 02:21:27;;;;;;;10.67;3.70;;;15.40;99.90;;;;;;5018638;28;20202;-84
2021/09/01 02:23:55;;;;;;;11.83;3.67;;;15.40;99.90;;;;;;5028175;28;20204;-84
2021/09/01 02:26:22;;;;;;;9.77;3.37;;;15.40;99.90;;;;;;5030447;28;20276;-84
2021/09/01 02:28:49;;;;;;;12.00;3.87;;;15.30;99.90;;;;;;5020169;28;20281;-85
2021/09/01 02:31:16;;;;;;;12.17;4.30;;;15.30;99.90;;;;;;5017968;28;20623;-86
2021/09/01 02:33:42;;;;;;;8.73;3.88;;;15.30;99.90;;;;;;5028993;28;20197;-85
2021/09/01 02:36:11;;;;;;;13.45;4.53;;;15.30;99.90;;;;;;5014898;28;20657;-86
2021/09/01 02:38:41;;;;;;;12.40;4.10;;;15.30;99.90;;;;;;5019187;28;20228;-84
2021/09/01 02:41:08;;;;;;;11.35;4.10;;;15.30;99.90;;;;;;5021309;28;20537;-85
2021/09/01 02:43:35;;;;;;;11.27;4.17;;;15.30;99.90;;;;;;5014187;28;20285;-85
2021/09/01 02:46:02;;;;;;;11.07;3.57;;;15.30;99.90;;;;;;5015176;28;20304;-84
2021/09/01 02:48:29;;;;;;;13.10;4.15;;;15.30;99.90;;;;;;5027498;28;20563;-84
2021/09/01 02:50:56;;;;;;;10.20;3.80;;;15.30;99.90;;;;;;5023632;28;20288;-84
2021/09/01 02:53:25;;;;;;;10.43;3.67;;;15.30;99.90;;;;;;5032790;28;20251;-84
2021/09/01 02:55:52;;;;;;;11.30;3.70;;;15.40;99.90;;;;;;5022854;28;20250;-84
2021/09/01 02:58:18;;;;;;;13.63;3.83;;;15.40;99.90;;;;;;5016302;28;20266;-86
2021/09/01 03:00:45;;;;;;;13.00;4.30;;;15.40;99.90;;;;;;5021158;28;20740;-86
2021/09/01 03:03:12;;;;;;;11.00;4.17;;;15.40;99.90;;;;;;5029428;28;20755;-85
2021/09/01 03:05:39;;;;;;;13.00;4.00;;;15.40;99.90;;;;;;5023189;28;20552;-83
2021/09/01 03:08:07;;;;;;;14.90;3.87;;;15.30;99.90;;;;;;5027532;28;20205;-85
2021/09/01 03:10:36;;;;;;;14.35;4.25;;;15.30;99.90;;;;;;5016467;28;20684;-85
2021/09/01 03:13:03;;;;;;;9.30;3.87;;;15.30;99.90;;;;;;5020447;28;20244;-85
2021/09/01 03:15:30;;;;;;;8.57;4.07;;;15.40;99.90;;;;;;5021344;28;20219;-83
2021/09/01 03:17:57;;;;;;;12.30;3.73;;;15.40;99.90;;;;;;5021810;28;20280;-84
2021/09/01 03:20:25;;;;;;;10.43;4.30;;;15.40;99.90;;;;;;5020112;28;20221;-84
2021/09/01 03:22:51;;;;;;;8.00;3.67;;;15.40;99.90;;;;;;5024039;28;20201;-84
2021/09/01 03:25:19;;;;;;;9.90;4.07;;;15.40;99.90;;;;;;5030134;28;20235;-83
2021/09/01 03:27:47;;;;;;;11.00;3.80;;;15.40;99.90;;;;;;5024585;28;20758;-83
2021/09/01 03:30:14;;;;;;;10.68;3.70;;;15.30;99.90;;;;;;5023767;28;20290;-83
2021/09/01 03:32:41;;;;;;;17.77;4.73;;;15.30;99.90;;;;;;5028366;28;20289;-84
2021/09/01 03:35:09;;;;;;;9.63;3.78;;;15.30;99.90;;;;;;5032395;28;20284;-84
2021/09/01 03:37:36;;;;;;;13.87;3.90;;;15.30;99.90;;;;;;5016313;28;20240;-84
2021/09/01 03:40:04;;;;;;;15.67;4.67;;;15.30;99.90;;;;;;5022169;28;20662;-86
2021/09/01 03:42:31;;;;;;;11.20;3.67;;;15.30;99.90;;;;;;5024752;28;20281;-86
2021/09/01 03:44:59;;;;;;;9.73;3.73;;;15.30;99.90;;;;;;5029369;28;20225;-85
2021/09/01 03:47:26;;;;;;;12.97;4.43;;;15.40;99.90;;;;;;5024883;28;20247;-84
2021/09/01 03:49:53;;;;;;;11.70;4.10;;;15.40;99.90;;;;;;5018883;28;20284;-84
2021/09/01 03:52:20;;;;;;;13.38;3.75;;;15.40;99.90;;;;;;5018158;28;20541;-85
2021/09/01 03:54:46;;;;;;;12.10;3.63;;;15.40;99.90;;;;;;5018781;28;20641;-84
2021/09/01 03:57:13;;;;;;;12.13;4.07;;;15.40;99.90;;;;;;5027792;28;20285;-86
2021/09/01 03:59:40;;;;;;;16.75;4.53;;;15.30;99.90;;;;;;5020202;28;20229;-87
2021/09/01 04:02:09;;;;;;;10.67;3.80;;;15.30;99.90;;;;;;5024498;28;20280;-86
2021/09/01 04:04:36;;;;;;;10.77;4.20;;;15.30;99.90;;;;;;5022988;28;20198;-85
2021/09/01 04:07:03;;;;;;;13.83;4.23;;;15.30;99.90;;;;;;5020363;28;20271;-85
2021/09/01 04:09:30;;;;;;;13.15;4.30;;;15.30;99.90;;;;;;5033690;28;20204;-85
2021/09/01 04:11:57;;;;;;;10.50;4.15;;;15.30;99.90;;;;;;5026564;28;20197;-85
2021/09/01 04:14:24;;;;;;;12.67;4.03;;;15.30;99.90;;;;;;5026656;28;20300;-89
2021/09/01 04:16:51;;;;;;;12.40;3.93;;;15.30;99.90;;;;;;5027150;28;20229;-88
2021/09/01 04:19:20;;;;;;;12.00;3.87;;;15.30;99.90;;;;;;5022434;28;20301;-88
2021/09/01 04:21:47;;;;;;;11.73;3.80;;;15.20;99.90;;;;;;5023862;28;20202;-86
2021/09/01 04:24:14;;;;;;;11.20;4.77;;;15.20;99.90;;;;;;5025608;28;20312;-87
2021/09/01 04:26:41;;;;;;;10.07;4.17;;;15.30;99.90;;;;;;5018998;28;20312;-86
2021/09/01 04:29:08;;;;;;;11.67;4.73;;;15.30;99.90;;;;;;5024797;28;20277;-88
2021/09/01 04:31:35;;;;;;;11.43;4.13;;;15.30;99.90;;;;;;5027260;28;20293;-90
2021/09/01 04:34:03;;;;;;;8.27;4.17;;;15.30;99.90;;;;;;5030560;28;20286;-89
2021/09/01 04:36:31;;;;;;;12.00;4.43;;;15.30;99.90;;;;;;5023801;28;20671;-88
2021/09/01 04:38:58;;;;;;;11.87;4.40;;;15.30;99.90;;;;;;5030724;28;20249;-83
2021/09/01 04:41:25;;;;;;;11.27;4.17;;;15.30;99.90;;;;;;5022202;28;20198;-88
2021/09/01 04:43:52;;;;;;;14.80;4.80;;;15.30;99.90;;;;;;5012355;28;20202;-88
2021/09/01 04:46:19;;;;;;;15.90;5.20;;;15.30;99.90;;;;;;5029891;28;20245;-88
2021/09/01 04:48:46;;;;;;;13.63;4.67;;;15.30;99.90;;;;;;5027734;28;20198;-88
2021/09/01 04:51:13;;;;;;;13.37;4.40;;;15.30;99.90;;;;;;5026411;28;20670;-89
2021/09/01 04:53:42;;;;;;;11.90;4.60;;;15.30;99.90;;;;;;5028206;28;20198;-88
2021/09/01 04:56:08;;;;;;;12.33;5.07;;;15.30;99.90;;;;;;5017743;28;20697;-88
2021/09/01 04:58:35;;;;;;;10.43;4.63;;;15.30;99.90;;;;;;5017448;28;20209;-84
2021/09/01 05:01:02;;;;;;;11.97;4.57;;;15.20;99.90;;;;;;5021177;28;20560;-85
2021/09/01 05:03:29;;;;;;;12.00;4.20;;;15.30;99.90;;;;;;5018048;28;20359;-87
2021/09/01 05:05:56;;;;;;;13.17;4.60;;;15.30;99.90;;;;;;5025538;28;20712;-89
2021/09/01 05:08:23;;;;;;;13.40;4.57;;;15.30;99.90;;;;;;5028355;28;20240;-90
2021/09/01 05:10:51;;;;;;;14.23;4.73;;;15.30;99.90;;;;;;5023684;28;20237;-90
2021/09/01 05:13:18;;;;;;;12.90;4.50;;;15.30;99.90;;;;;;5031644;28;20205;-89
2021/09/01 05:15:45;;;;;;;10.37;4.07;;;15.30;99.90;;;;;;5020998;28;20281;-88
2021/09/01 05:18:12;;;;;;;14.57;4.50;;;15.30;99.90;;;;;;5018094;28;20229;-88
2021/09/01 05:20:39;;;;;;;13.57;4.43;;;15.30;99.90;;;;;;5025377;28;20202;-88
2021/09/01 05:23:08;;;;;;;8.77;4.07;;;15.40;99.90;;;;;;5019509;28;20228;-88
2021/09/01 05:25:43;;;;;;;9.90;4.20;;;15.40;99.90;;;;;;5018127;28;20273;-88
2021/09/01 05:28:14;;;;;;;10.07;4.30;;;15.40;99.90;;;;;;5031114;28;20249;-89
2021/09/01 05:30:42;;;;;;;10.27;3.83;;;15.30;99.90;;;;;;5030341;28;20294;-88
2021/09/01 05:33:11;;;;;;;12.63;4.80;;;15.30;99.90;;;;;;5028990;28;20252;-89
2021/09/01 05:35:39;;;;;;;8.10;3.90;;;15.30;99.90;;;;;;5027240;28;20249;-89
2021/09/01 05:38:08;;;;;;;9.90;3.77;;;15.40;99.90;;;;;;5020725;28;20308;-89
2021/09/01 05:40:36;;;;;;;9.33;3.60;;;15.40;99.90;;;;;;5019460;28;20205;-90
2021/09/01 05:43:03;;;;;;;10.70;3.90;;;15.40;99.90;;;;;;5027905;28;20224;-88
2021/09/01 05:45:32;;;;;;;12.40;4.27;;;15.50;99.90;;;;;;5023683;28;20580;-88
2021/09/01 05:48:00;;;;;;;9.37;4.20;;;15.60;99.90;;;;;;5018766;28;20312;-88
2021/09/01 05:50:28;;;;;;;10.20;4.07;;;15.60;99.90;;;;;;5025671;28;24469;-88
2021/09/01 05:52:57;;;;;;;9.50;4.17;;;15.70;99.90;;;;;;5019683;28;20264;-87
2021/09/01 05:55:27;;;;;;;10.93;4.70;;;15.80;99.90;;;;;;5022134;28;20285;-87
2021/09/01 05:58:00;;;;;;;16.63;5.75;;;15.80;99.90;;;;;;5016027;28;20679;-86
2021/09/01 06:00:35;;;;;;;11.55;4.82;;;15.80;99.90;;;;;;5023528;28;20205;-85
2021/09/01 06:03:07;;;;;;;11.90;4.50;;;15.80;99.90;;;;;;5022619;28;20202;-85
2021/09/01 06:05:37;;;;;;;14.33;5.60;;;15.80;99.90;;;;;;5014710;28;20568;-85
2021/09/01 06:08:08;;;;;;;14.80;5.43;;;15.80;99.90;;;;;;5020955;28;20280;-85
2021/09/01 06:10:39;;;;;;;13.13;4.72;;;15.80;99.90;;;;;;5023267;28;20201;-84
2021/09/01 06:13:09;;;;;;;9.53;4.83;;;15.80;99.90;;;;;;5020426;28;20224;-82
2021/09/01 06:15:39;;;;;;;11.20;5.50;;;15.90;99.90;;;;;;5015459;28;20551;-80
2021/09/01 06:18:08;;;;;;;11.65;5.03;;;15.90;99.90;;;;;;5014753;28;20678;-78
2021/09/01 06:20:36;;;;;;;14.35;4.70;;;15.90;99.90;;;;;;5021078;28;20220;-79
2021/09/01 06:23:04;;;;;;;9.30;4.32;;;15.80;99.90;;;;;;5019249;28;20202;-80
2021/09/01 06:25:31;;;;;;;10.50;4.47;;;15.90;99.90;;;;;;5022987;28;20202;-80
2021/09/01 06:27:59;;;;;;;11.80;4.22;;;15.90;99.90;;;;;;5014596;28;20321;-82
2021/09/01 06:30:25;;;;;;;13.52;4.25;;;15.90;99.90;;;;;;5027587;28;20221;-86
2021/09/01 06:32:54;;;;;;;11.10;4.28;;;15.90;99.90;;;;;;5014187;28;20217;-80
2021/09/01 06:35:21;;;;;;;12.20;4.30;;;15.90;99.90;;;;;;5009747;28;22667;-81
2021/09/01 06:37:49;;;;;;;18.03;4.50;;;15.90;99.90;;;;;;5016879;28;20733;-88
2021/09/01 06:40:18;;;;;;;11.53;4.23;;;15.90;99.90;;;;;;5020317;28;20198;-88
2021/09/01 06:42:45;;;;;;;14.37;3.93;;;15.90;99.90;;;;;;5018011;28;20199;-85
2021/09/01 06:45:13;;;;;;;12.98;4.50;;;16.10;99.90;;;;;;5018628;28;20707;-83
2021/09/01 06:47:42;;;;;;;15.20;4.10;;;16.20;99.90;;;;;;5021202;28;20316;-83
2021/09/01 06:50:14;;;;;;;15.82;4.32;;;16.40;99.90;;;;;;5019310;28;20568;-83
2021/09/01 06:52:44;;;;;;;15.30;4.53;;;16.50;99.90;;;;;;5016781;28;20199;-86
2021/09/01 06:55:12;;;;;;;17.70;4.70;;;16.60;99.90;;;;;;5019823;28;20216;-87
2021/09/01 06:57:40;;;;;;;12.15;4.03;;;16.40;99.90;;;;;;5018214;28;20862;-85
2021/09/01 07:00:10;;;;;;;13.00;4.18;;;16.30;99.90;;;;;;5018261;28;20204;-86
2021/09/01 07:02:37;;;;;;;15.45;4.82;;;16.30;99.90;;;;;;5023811;28;20245;-86
2021/09/01 07:05:04;;;;;;;12.90;4.30;;;16.30;99.90;;;;;;5026837;28;20245;-88
2021/09/01 07:07:33;;;;;;;14.45;4.78;;;16.20;99.90;;;;;;5021300;28;20225;-82
2021/09/01 07:10:00;;;;;;;14.00;4.43;;;16.20;99.90;;;;;;5022499;28;20658;-83
2021/09/01 07:12:29;;;;;;;9.52;3.80;;;16.30;99.90;;;;;;5018841;28;20201;-87
2021/09/01 07:14:56;;;;;;;13.00;5.17;;;16.40;99.90;;;;;;5008466;28;20608;-86
2021/09/01 07:17:23;;;;;;;11.15;4.80;;;16.40;99.90;;;;;;5024956;28;20229;-90
2021/09/01 07:19:51;;;;;;;13.32;5.85;;;16.50;99.90;;;;;;5004239;28;20206;-85
2021/09/01 07:22:18;;;;;;;13.30;5.30;;;16.60;99.90;;;;;;5026707;28;20248;-92
2021/09/01 07:24:46;;;;;;;9.05;4.80;;;16.80;99.90;;;;;;5018074;28;20194;-86
2021/09/01 07:27:13;;;;;;;16.95;4.63;;;16.70;99.90;;;;;;5027143;28;20221;-84
2021/09/01 07:29:41;;;;;;;12.63;4.70;;;16.50;99.90;;;;;;5008655;28;20222;-90
2021/09/01 07:32:08;;;;;;;9.68;4.60;;;16.70;99.90;;;;;;5023226;28;20557;-90
2021/09/01 07:34:35;;;;;;;11.60;4.95;;;16.90;99.90;;;;;;5024667;28;20260;-89
2021/09/01 07:37:02;;;;;;;10.95;4.22;;;16.80;99.90;;;;;;5030742;28;20225;-87
2021/09/01 07:39:29;;;;;;;14.27;4.38;;;16.70;99.90;;;;;;5038304;28;20292;-87
2021/09/01 07:41:57;;;;;;;10.07;4.10;;;16.80;99.90;;;;;;5033234;28;20201;-89
2021/09/01 07:44:25;;;;;;;9.25;3.70;;;16.90;99.90;;;;;;5022302;28;20240;-85
2021/09/01 07:46:53;;;;;;;13.68;4.40;;;16.90;99.90;;;;;;5020110;28;20601;-84
2021/09/01 07:49:20;;;;;;;12.32;4.05;;;16.90;99.90;;;;;;5020738;28;20269;-82
2021/09/01 07:51:49;;;;;;;13.88;4.28;;;16.90;99.90;;;;;;5026075;28;20232;-89
2021/09/01 07:54:16;;;;;;;13.10;4.03;;;16.80;99.90;;;;;;5024848;28;20213;-88
2021/09/01 07:56:43;;;;;;;9.77;4.20;;;16.90;99.90;;;;;;5023951;28;20214;-87
2021/09/01 07:59:11;;;;;;;15.43;4.93;;;17.10;99.90;;;;;;5022145;28;20236;-86
2021/09/01 08:01:38;;;;;;;10.43;4.53;;;17.10;99.90;;;;;;4999589;28;20300;-80
2021/09/01 08:04:05;;;;;;;10.85;4.47;;;17.00;99.90;;;;;;5029718;28;20190;-83
2021/09/01 08:06:32;;;;;;;10.43;4.03;;;17.20;99.90;;;;;;5026240;28;20210;-82
2021/09/01 08:08:59;;;;;;;11.95;4.10;;;17.60;99.90;;;;;;5029910;28;20258;-82
2021/09/01 08:11:26;;;;;;;11.85;4.28;;;17.90;99.90;;;;;;5028024;28;20536;-83
2021/09/01 08:13:53;;;;;;;13.32;4.70;;;18.00;99.90;;;;;;5030696;28;20202;-89
2021/09/01 08:16:22;;;;;;;14.65;5.40;;;18.30;99.90;;;;;;5028332;28;20205;-83
2021/09/01 08:18:49;;;;;;;8.82;3.70;;;17.90;99.90;;;;;;5031683;28;20548;-83
2021/09/01 08:21:16;;;;;;;12.02;3.65;;;17.80;99.90;;;;;;5023844;28;20284;-86
2021/09/01 08:23:42;;;;;;;9.80;4.43;;;17.70;99.90;;;;;;5016357;28;20289;-80
2021/09/01 08:26:09;;;;;;;12.65;4.40;;;17.60;99.90;;;;;;5016209;28;20202;-83
2021/09/01 08:28:36;;;;;;;8.52;4.28;;;17.70;99.90;;;;;;5028201;28;20671;-85
2021/09/01 08:31:03;;;;;;;14.77;4.60;;;17.70;99.90;;;;;;5016082;28;20280;-86
2021/09/01 08:33:32;;;;;;;11.90;4.10;;;17.70;99.90;;;;;;5020531;28;20297;-87
2021/09/01 08:35:58;;;;;;;11.77;4.00;;;18.00;99.90;;;;;;5017023;28;20301;-86
2021/09/01 08:38:25;;;;;;;12.40;4.75;;;18.40;99.90;;;;;;5027094;28;21104;-83
2021/09/01 08:40:52;;;;;;;9.57;3.63;;;18.40;99.90;;;;;;5019928;28;20226;-82
2021/09/01 08:43:19;;;;;;;10.75;4.80;;;18.00;99.90;;;;;;5019404;28;20202;-81
2021/09/01 08:45:47;;;;;;;9.75;4.82;;;17.70;99.90;;;;;;5021507;28;20588;-83
2021/09/01 08:48:17;;;;;;;11.70;4.88;;;17.70;99.90;;;;;;5021260;28;20225;-83
2021/09/01 08:50:45;;;;;;;10.77;4.93;;;17.70;99.90;;;;;;5020299;28;20277;-83
2021/09/01 08:53:12;;;;;;;10.60;3.92;;;17.70;99.90;;;;;;5018753;28;20202;-86
2021/09/01 08:55:39;;;;;;;7.20;4.28;;;17.80;99.90;;;;;;5026022;28;22868;-84
2021/09/01 08:58:06;;;;;;;12.82;4.22;;;18.00;99.90;;;;;;5020362;28;20197;-83
2021/09/01 09:00:33;;;;;;;12.70;4.00;;;18.10;99.90;;;;;;5026517;28;20223;-83
2021/09/01 09:03:01;;;;;;;11.52;4.20;;;18.30;99.90;;;;;;5010750;28;20202;-85
2021/09/01 09:05:33;;;;;;;12.35;4.70;;;18.40;99.90;;;;;;5030572;28;20197;-89
2021/09/01 09:08:02;;;;;;;9.18;4.07;;;18.30;99.90;;;;;;5028989;28;20690;-82
2021/09/01 09:10:32;;;;;;;9.77;3.88;;;18.00;99.90;;;;;;5022255;28;20280;-84
2021/09/01 09:13:01;;;;;;;11.55;4.32;;;17.80;99.90;;;;;;5023036;28;20197;-81
2021/09/01 09:15:29;;;;;;;7.95;4.60;;;17.80;99.90;;;;;;5031810;28;20217;-85
2021/09/01 09:17:56;;;;;;;11.05;4.50;;;17.90;99.90;;;;;;5029201;28;20193;-87
2021/09/01 09:20:31;;;;;;;13.10;4.45;;;17.90;99.90;;;;;;5027318;28;20292;-85
2021/09/01 09:23:02;;;;;;;11.68;4.78;;;18.00;99.90;;;;;;5017766;28;20549;-85
2021/09/01 09:25:31;;;;;;;14.27;4.43;;;18.10;99.90;;;;;;5017462;28;20688;-81
2021/09/01 09:28:00;;;;;;;11.00;4.68;;;18.00;99.90;;;;;;5020969;28;20711;-83
2021/09/01 09:30:37;;;;;;;8.63;4.20;;;18.00;99.90;;;;;;5016155;28;20217;-84
2021/09/01 09:33:07;;;;;;;12.27;4.55;;;18.00;99.90;;;;;;5025317;28;20194;-83
2021/09/01 09:35:49;;;;;;;16.73;4.80;;;18.00;99.90;;;;;;5023531;28;20288;-81
2021/09/01 09:38:26;;;;;;;13.85;5.00;;;17.70;99.90;;;;;;5013541;28;20228;-80
2021/09/01 09:40:54;;;;;;;12.32;5.40;;;17.90;99.90;;;;;;5012234;28;20253;-78
2021/09/01 09:43:22;;;;;;;11.90;4.78;;;17.90;99.90;;;;;;5020553;28;20205;-75
2021/09/01 09:45:58;;;;;;;16.63;5.28;;;17.80;99.90;;;;;;5020873;28;20276;-78
2021/09/01 09:48:28;;;;;;;9.60;4.20;;;17.90;99.90;;;;;;5014612;28;20230;-81
2021/09/01 09:50:55;;;;;;;11.63;4.68;;;18.40;99.90;;;;;;5020034;28;20683;-81
2021/09/01 09:53:37;;;;;;;12.07;5.55;;;18.40;99.90;;;;;;5017784;28;20228;-83
2021/09/01 09:56:12;;;;;;;13.00;5.03;;;17.90;99.90;;;;;;5019828;28;20244;-83
2021/09/01 09:58:42;;;;;;;11.52;5.20;;;18.00;99.90;;;;;;5031753;28;20205;-84
2021/09/01 10:01:10;;;;;;;15.93;5.20;;;18.00;99.90;;;;;;5024481;28;20206;-83
2021/09/01 10:03:38;;;;;;;11.23;5.28;;;17.80;99.90;;;;;;5022271;28;20294;-80
2021/09/01 10:06:07;;;;;;;9.50;5.03;;;18.10;99.90;;;;;;5031232;28;20217;-78
2021/09/01 10:08:35;;;;;;;12.23;5.18;;;18.40;99.90;;;;;;5028688;28;20309;-83
2021/09/01 10:11:04;;;;;;;15.23;5.63;;;18.50;99.90;;;;;;5024733;28;20268;-83
2021/09/01 10:13:35;;;;;;;13.73;5.53;;;18.50;99.90;;;;;;5023742;28;20328;-84
2021/09/01 10:16:09;;;;;;;12.20;5.03;;;18.60;99.90;;;;;;5023967;28;20264;-80
2021/09/01 10:18:40;;;;;;;10.88;5.45;;;18.70;99.90;;;;;;5016048;28;20202;-80
2021/09/01 10:21:08;;;;;;;16.15;6.10;;;18.80;99.90;;;;;;5014941;28;20275;-78
2021/09/01 10:23:43;;;;;;;12.90;6.22;;;18.40;99.90;;;;;;5023246;28;20272;-81
2021/09/01 10:26:38;;;;;;;10.35;5.80;;;18.00;99.90;;;;;;5017932;28;20200;-79
2021/09/01 10:29:06;;;;;;;12.75;5.65;;;17.90;99.90;;;;;;4995839;28;20804;-80
2021/09/01 10:31:34;;;;;;;15.10;6.25;;;17.90;99.90;;;;;;5021322;28;20308;-83
2021/09/01 10:34:19;;;;;;;12.23;6.25;;;18.30;99.90;;;;;;5018477;28;20331;-86
2021/09/01 10:36:51;;;;;;;9.80;6.00;;;18.70;99.90;;;;;;5018838;28;20671;-81
2021/09/01 10:39:38;;;;;;;13.65;5.85;;;18.70;99.90;;;;;;5016651;28;20217;-82
2021/09/01 10:42:35;;;;;;;12.88;6.20;;;18.80;99.90;;;;;;5014764;28;20218;-81
2021/09/01 10:45:05;;;;;;;12.63;5.45;;;19.10;99.90;;;;;;5018642;28;21299;-84
2021/09/01 10:48:03;;;;;;;12.27;5.55;;;19.50;99.90;;;;;;5019252;28;20198;-81
2021/09/01 10:50:33;;;;;;;12.93;5.40;;;20.30;99.90;;;;;;5018301;28;20556;-82
2021/09/01 10:53:04;;;;;;;15.50;4.82;;;21.20;99.90;;;;;;5014797;28;20292;-84
2021/09/01 10:55:32;;;;;;;8.95;4.45;;;21.80;99.30;;;;;;5016962;28;20682;-81
2021/09/01 10:58:19;;;;;;;10.43;4.60;;;20.20;99.90;;;;;;5015009;28;20264;-83
2021/09/01 11:00:55;;;;;;;22.58;5.80;;;19.50;99.90;;;;;;5018161;28;20309;-83
2021/09/01 11:03:34;;;;;;;10.63;4.50;;;19.40;99.90;;;;;;5015713;28;20221;-86
2021/09/01 11:06:33;;;;;;;6.30;3.88;;;19.30;99.90;;;;;;5018225;28;20281;-86
2021/09/01 11:09:05;;;;;;;8.30;3.67;;;18.90;99.90;;;;;;4989061;28;20226;-88
2021/09/01 11:11:47;;;;;;;6.97;3.50;;;19.00;99.90;;;;;;5021961;28;20656;-86
2021/09/01 11:14:33;;;;;;;7.28;3.67;;;18.70;99.90;;;;;;5016674;28;20279;-88
2021/09/01 11:17:05;;;;;;;5.72;3.63;;;18.50;99.90;;;;;;5020290;28;20200;-88
2021/09/01 11:19:32;;;;;;;8.82;4.13;;;18.60;99.90;;;;;;5024262;28;20190;-88
2021/09/01 11:22:04;;;;;;;6.57;3.42;;;18.50;99.90;;;;;;5014653;28;20197;-78
2021/09/01 11:24:31;;;;;;;8.50;4.07;;;18.70;99.90;;;;;;5013977;28;20197;-79
2021/09/01 11:26:59;;;;;;;5.55;3.38;;;18.80;99.90;;;;;;5011609;28;20210;-77
2021/09/01 11:29:36;;;;;;;5.57;3.22;;;18.70;99.90;;;;;;5019082;28;20240;-84
2021/09/01 11:32:06;;;;;;;8.07;3.47;;;18.70;99.90;;;;;;5018491;28;20193;-81
2021/09/01 11:34:33;;;;;;;7.47;3.67;;;18.60;99.90;;;;;;5018814;28;20198;-86
2021/09/01 11:37:02;;;;;;;7.07;3.40;;;18.60;99.90;;;;;;5019067;28;20289;-82
2021/09/01 11:39:29;;;;;;;7.13;3.58;;;18.80;99.90;;;;;;5022203;28;20768;-82
2021/09/01 11:42:01;;;;;;;5.57;3.67;;;19.30;99.90;;;;;;5014055;28;20281;-80
2021/09/01 11:44:28;;;;;;;11.15;3.75;;;19.50;99.90;;;;;;5016819;28;20660;-82
2021/09/01 11:46:56;;;;;;;7.65;3.80;;;19.40;99.90;;;;;;5011823;28;20277;-83
2021/09/01 11:49:24;;;;;;;5.85;3.70;;;19.70;99.90;;;;;;5020404;28;20292;-82
2021/09/01 11:51:51;;;;;;;6.53;3.15;;;19.70;99.40;;;;;;5011311;28;20280;-82
2021/09/01 11:54:19;;;;;;;5.78;3.05;;;20.10;99.40;;;;;;5017415;28;20296;-83
2021/09/01 11:56:47;;;;;;;6.50;3.42;;;19.50;99.90;;;;;;5018812;28;20192;-82
2021/09/01 11:59:15;;;;;;;7.32;4.07;;;19.30;99.90;;;;;;5018659;28;20198;-84
2021/09/01 12:01:47;;;;;;;7.97;3.58;;;19.30;99.90;;;;;;5018813;28;20202;-84
2021/09/01 12:04:16;;;;;;;7.03;3.90;;;19.40;99.90;;;;;;5024579;28;20253;-82
2021/09/01 12:06:46;;;;;;;10.00;4.03;;;19.10;99.90;;;;;;5017147;28;20205;-83
2021/09/01 12:09:14;;;;;;;7.55;3.70;;;19.00;99.90;;;;;;5016799;28;20955;-82
2021/09/01 12:11:51;;;;;;;11.00;3.40;;;19.30;99.90;;;;;;5021328;28;20194;-81
2021/09/01 12:14:23;;;;;;;7.05;3.90;;;19.40;99.90;;;;;;5026811;28;20225;-81
2021/09/01 12:16:50;;;;;;;6.85;3.88;;;19.40;99.90;;;;;;5028639;28;20224;-84
2021/09/01 12:19:19;;;;;;;5.78;3.65;;;19.10;99.90;;;;;;5026743;28;20290;-83
2021/09/01 12:21:53;;;;;;;8.45;3.75;;;19.20;99.90;;;;;;5020398;28;20595;-80
2021/09/01 12:24:23;;;;;;;6.45;3.90;;;19.20;99.90;;;;;;5022614;28;20201;-82
2021/09/01 12:26:55;;;;;;;6.72;3.50;;;19.20;99.90;;;;;;5025893;28;20227;-82
2021/09/01 12:29:35;;;;;;;5.80;3.17;;;19.30;99.90;;;;;;5021130;28;20226;-84
2021/09/01 12:32:08;;;;;;;7.25;3.67;;;19.30;99.90;;;;;;5022504;28;20206;-81
2021/09/01 12:34:38;;;;;;;6.97;3.92;;;19.40;99.90;;;;;;5028684;28;20230;-82
2021/09/01 12:37:12;;;;;;;7.65;3.33;;;19.50;99.90;;;;;;5021659;28;20237;-84
2021/09/01 12:39:49;;;;;;;7.22;3.58;;;19.60;99.90;;;;;;5010284;28;20297;-83
2021/09/01 12:42:25;;;;;;;8.45;3.80;;;19.90;99.90;;;;;;5023362;28;20295;-83
2021/09/01 12:44:54;;;;;;;6.22;3.17;;;19.80;99.90;;;;;;5021836;28;20244;-83
2021/09/01 12:47:21;;;;;;;6.68;3.50;;;19.40;99.90;;;;;;5032547;28;20257;-83
2021/09/01 12:49:51;;;;;;;4.05;3.10;;;19.10;99.60;;;;;;5018079;28;20233;-83